Página principal
METAR-TAF:

METAR-TAF

Aeroportos :

Banguecoque, Tailândia

Aeroporto Internacional de Don Mueang

latitude: 13-54-45N, longitude: 100-36-24E, altura: 4 m

Observação actual do tempo

O boletim foi feito há 45 minutos, às 01:30 UTC
Vento 8 kt de es-sudeste, variando entre este e sudeste
Temperatura 27°C
Humidade 79%
Pressão 1015 hPa
Visibilidade 10 km ou mais
Poucas nuvensa uma altura de 2000 ft

METAR: VTBD 280130Z 11008KT 080V140 9999 FEW020 27/23 Q1015 NOSIG

Hora: 09:15 (02:15 UTC)

Previsão

O boletim foi feito há 3 horas e 15 minutos, às 23:00 UTC
Previsão válida de 28 às 00 UTC a 29 às 06 UTC
Vento 8 kt de este
Visibilidade 10 km ou mais
Poucas nuvensa uma altura de 2000 ft
Tornando-se
de 28 às 12 UTC a 28 às 14 UTC
Vento 5 kt de su-sudeste
Tornando-se
de 29 às 02 UTC a 29 às 04 UTC
Vento 8 kt de su-sudoeste

TAF: VTBD 272300Z 2800/2906 09008KT 9999 FEW020 BECMG 2812/2814 15005KT BECMG 2902/2904 21008KT

Observações e previsões do tempo de mais de 4000 aeroportos (mensagens METAR e TAF).

As estações disponíveis são os pontos amarelos e vermelhos sobre o mapa.

Mova o rato sobre o mapa para ver o nome da estação.

Depois clique no ponto para visualizar as observações e previsões meteorológicas.

Para alterar o mapa : clique nos botões verdes com uma cruz preta para aumentar o zoom; no botão verde com uma pitada de zoom; ou nas setas verdes para mapas adjacentes.


METAR-TAF: